sensor_id;sensor_type;location;lat;lon;timestamp;temperature;humidity
831;DHT22;397;50.564;7.272;2022-07-10T00:01:42;16.50;99.90
831;DHT22;397;50.564;7.272;2022-07-10T00:04:10;16.50;99.90
831;DHT22;397;50.564;7.272;2022-07-10T00:06:37;16.50;99.90
831;DHT22;397;50.564;7.272;2022-07-10T00:09:07;16.40;99.90
831;DHT22;397;50.564;7.272;2022-07-10T00:11:34;16.40;99.90
831;DHT22;397;50.564;7.272;2022-07-10T00:14:02;16.10;99.90
831;DHT22;397;50.564;7.272;2022-07-10T00:16:30;16.10;99.90
831;DHT22;397;50.564;7.272;2022-07-10T00:18:57;16.10;99.90
831;DHT22;397;50.564;7.272;2022-07-10T00:21:25;16.10;99.90
831;DHT22;397;50.564;7.272;2022-07-10T00:23:52;16.20;99.90
831;DHT22;397;50.564;7.272;2022-07-10T00:26:20;16.00;99.90
831;DHT22;397;50.564;7.272;2022-07-10T00:28:47;16.10;99.90
831;DHT22;397;50.564;7.272;2022-07-10T00:31:15;16.10;99.90
831;DHT22;397;50.564;7.272;2022-07-10T00:33:43;16.00;99.90
831;DHT22;397;50.564;7.272;2022-07-10T00:36:11;15.90;99.90
831;DHT22;397;50.564;7.272;2022-07-10T00:38:38;15.90;99.90
831;DHT22;397;50.564;7.272;2022-07-10T00:41:06;15.90;99.90
831;DHT22;397;50.564;7.272;2022-07-10T00:46:22;15.70;99.90
831;DHT22;397;50.564;7.272;2022-07-10T00:48:49;15.90;99.90
831;DHT22;397;50.564;7.272;2022-07-10T00:51:18;15.80;99.90
831;DHT22;397;50.564;7.272;2022-07-10T00:53:47;15.80;99.90
831;DHT22;397;50.564;7.272;2022-07-10T00:56:20;15.70;99.90
831;DHT22;397;50.564;7.272;2022-07-10T00:58:48;15.50;99.90
831;DHT22;397;50.564;7.272;2022-07-10T01:01:16;15.50;99.90
831;DHT22;397;50.564;7.272;2022-07-10T01:03:45;15.60;99.90
831;DHT22;397;50.564;7.272;2022-07-10T01:06:13;15.60;99.90
831;DHT22;397;50.564;7.272;2022-07-10T01:08:42;15.60;99.90
831;DHT22;397;50.564;7.272;2022-07-10T01:11:10;15.50;99.90
831;DHT22;397;50.564;7.272;2022-07-10T01:13:39;15.40;99.90
831;DHT22;397;50.564;7.272;2022-07-10T01:16:07;15.40;99.90
831;DHT22;397;50.564;7.272;2022-07-10T01:18:34;15.40;99.90
831;DHT22;397;50.564;7.272;2022-07-10T01:21:02;15.40;99.90
831;DHT22;397;50.564;7.272;2022-07-10T01:23:30;15.30;99.90
831;DHT22;397;50.564;7.272;2022-07-10T01:25:57;15.30;99.90
831;DHT22;397;50.564;7.272;2022-07-10T01:28:25;15.50;99.90
831;DHT22;397;50.564;7.272;2022-07-10T01:30:55;15.50;99.90
831;DHT22;397;50.564;7.272;2022-07-10T01:33:22;15.40;99.90
831;DHT22;397;50.564;7.272;2022-07-10T01:35:50;15.40;99.90
831;DHT22;397;50.564;7.272;2022-07-10T01:38:18;15.20;99.90
831;DHT22;397;50.564;7.272;2022-07-10T01:40:45;15.10;99.90
831;DHT22;397;50.564;7.272;2022-07-10T01:43:13;15.00;99.90
831;DHT22;397;50.564;7.272;2022-07-10T01:45:40;15.00;99.90
831;DHT22;397;50.564;7.272;2022-07-10T01:48:09;15.00;99.90
831;DHT22;397;50.564;7.272;2022-07-10T01:50:37;15.00;99.90
831;DHT22;397;50.564;7.272;2022-07-10T01:53:05;14.90;99.90
831;DHT22;397;50.564;7.272;2022-07-10T01:55:33;15.00;99.90
831;DHT22;397;50.564;7.272;2022-07-10T01:58:00;15.00;99.90
831;DHT22;397;50.564;7.272;2022-07-10T02:00:28;15.00;99.90
831;DHT22;397;50.564;7.272;2022-07-10T02:06:18;14.90;99.90
831;DHT22;397;50.564;7.272;2022-07-10T02:08:45;15.00;99.90
831;DHT22;397;50.564;7.272;2022-07-10T02:11:13;15.00;99.90
831;DHT22;397;50.564;7.272;2022-07-10T02:13:40;14.90;99.90
831;DHT22;397;50.564;7.272;2022-07-10T02:16:08;14.80;99.90
831;DHT22;397;50.564;7.272;2022-07-10T02:18:36;14.80;99.90
831;DHT22;397;50.564;7.272;2022-07-10T02:21:05;14.70;99.90
831;DHT22;397;50.564;7.272;2022-07-10T02:23:33;14.70;99.90
831;DHT22;397;50.564;7.272;2022-07-10T02:26:01;14.70;99.90
831;DHT22;397;50.564;7.272;2022-07-10T02:28:29;14.70;99.90
831;DHT22;397;50.564;7.272;2022-07-10T02:30:57;14.60;99.90
831;DHT22;397;50.564;7.272;2022-07-10T02:33:25;14.40;99.90
831;DHT22;397;50.564;7.272;2022-07-10T02:35:52;14.50;99.90
831;DHT22;397;50.564;7.272;2022-07-10T02:38:20;14.50;99.90
831;DHT22;397;50.564;7.272;2022-07-10T02:40:47;14.60;99.90
831;DHT22;397;50.564;7.272;2022-07-10T02:43:15;14.60;99.90
831;DHT22;397;50.564;7.272;2022-07-10T02:45:42;14.50;99.90
831;DHT22;397;50.564;7.272;2022-07-10T02:48:10;14.30;99.90
831;DHT22;397;50.564;7.272;2022-07-10T02:50:37;14.30;99.90
831;DHT22;397;50.564;7.272;2022-07-10T02:53:05;14.20;99.90
831;DHT22;397;50.564;7.272;2022-07-10T02:55:33;14.40;99.90
831;DHT22;397;50.564;7.272;2022-07-10T02:58:00;14.40;99.90
831;DHT22;397;50.564;7.272;2022-07-10T03:00:28;14.30;99.90
831;DHT22;397;50.564;7.272;2022-07-10T03:02:56;14.20;99.90
831;DHT22;397;50.564;7.272;2022-07-10T03:05:23;14.20;99.90
831;DHT22;397;50.564;7.272;2022-07-10T03:07:51;14.30;99.90
831;DHT22;397;50.564;7.272;2022-07-10T03:10:18;14.30;99.90
831;DHT22;397;50.564;7.272;2022-07-10T03:12:46;14.20;99.90
831;DHT22;397;50.564;7.272;2022-07-10T03:15:14;14.20;99.90
831;DHT22;397;50.564;7.272;2022-07-10T03:17:42;14.30;99.90
831;DHT22;397;50.564;7.272;2022-07-10T03:20:10;14.30;99.90
831;DHT22;397;50.564;7.272;2022-07-10T03:22:38;14.20;99.90
831;DHT22;397;50.564;7.272;2022-07-10T03:25:06;14.30;99.90
831;DHT22;397;50.564;7.272;2022-07-10T03:27:34;14.40;99.90
831;DHT22;397;50.564;7.272;2022-07-10T03:30:01;14.60;99.90
831;DHT22;397;50.564;7.272;2022-07-10T03:32:29;14.60;99.90
831;DHT22;397;50.564;7.272;2022-07-10T03:34:57;14.60;99.90
831;DHT22;397;50.564;7.272;2022-07-10T03:37:25;14.50;99.90
831;DHT22;397;50.564;7.272;2022-07-10T03:39:52;14.60;99.90
831;DHT22;397;50.564;7.272;2022-07-10T03:42:20;14.60;99.90
831;DHT22;397;50.564;7.272;2022-07-10T03:44:47;14.70;99.90
831;DHT22;397;50.564;7.272;2022-07-10T03:47:15;14.80;99.90
831;DHT22;397;50.564;7.272;2022-07-10T03:49:42;14.90;99.90
831;DHT22;397;50.564;7.272;2022-07-10T03:52:09;14.90;99.90
831;DHT22;397;50.564;7.272;2022-07-10T03:54:37;14.90;99.90
831;DHT22;397;50.564;7.272;2022-07-10T03:57:05;14.80;99.90
831;DHT22;397;50.564;7.272;2022-07-10T03:59:50;14.80;99.90
831;DHT22;397;50.564;7.272;2022-07-10T04:02:18;14.90;99.90
831;DHT22;397;50.564;7.272;2022-07-10T04:04:45;15.00;99.90
831;DHT22;397;50.564;7.272;2022-07-10T04:07:13;15.00;99.90
831;DHT22;397;50.564;7.272;2022-07-10T04:09:40;15.10;99.90
831;DHT22;397;50.564;7.272;2022-07-10T04:12:08;15.10;99.90
831;DHT22;397;50.564;7.272;2022-07-10T04:14:36;15.20;99.90
831;DHT22;397;50.564;7.272;2022-07-10T04:17:03;15.00;99.90
831;DHT22;397;50.564;7.272;2022-07-10T04:19:31;15.20;99.90
831;DHT22;397;50.564;7.272;2022-07-10T04:21:58;15.20;99.90
831;DHT22;397;50.564;7.272;2022-07-10T04:24:26;15.20;99.90
831;DHT22;397;50.564;7.272;2022-07-10T04:26:53;15.40;99.90
831;DHT22;397;50.564;7.272;2022-07-10T04:29:21;15.40;99.90
831;DHT22;397;50.564;7.272;2022-07-10T04:31:49;15.40;99.90
831;DHT22;397;50.564;7.272;2022-07-10T04:34:16;15.70;99.90
831;DHT22;397;50.564;7.272;2022-07-10T04:36:44;15.70;99.90
831;DHT22;397;50.564;7.272;2022-07-10T04:39:11;16.20;99.90
831;DHT22;397;50.564;7.272;2022-07-10T04:41:39;17.40;99.90
831;DHT22;397;50.564;7.272;2022-07-10T04:44:06;17.80;99.90
831;DHT22;397;50.564;7.272;2022-07-10T04:46:34;18.50;99.90
831;DHT22;397;50.564;7.272;2022-07-10T04:49:01;20.30;99.90
831;DHT22;397;50.564;7.272;2022-07-10T04:51:29;20.80;99.90
831;DHT22;397;50.564;7.272;2022-07-10T04:53:57;21.50;99.90
831;DHT22;397;50.564;7.272;2022-07-10T04:56:24;22.00;99.90
831;DHT22;397;50.564;7.272;2022-07-10T04:58:52;23.00;99.90
831;DHT22;397;50.564;7.272;2022-07-10T05:01:20;23.80;99.90
831;DHT22;397;50.564;7.272;2022-07-10T05:03:47;24.10;99.90
831;DHT22;397;50.564;7.272;2022-07-10T05:06:15;24.50;99.90
831;DHT22;397;50.564;7.272;2022-07-10T05:08:43;24.50;99.90
831;DHT22;397;50.564;7.272;2022-07-10T05:11:11;24.70;99.90
831;DHT22;397;50.564;7.272;2022-07-10T05:13:38;25.60;99.90
831;DHT22;397;50.564;7.272;2022-07-10T05:16:06;25.20;99.90
831;DHT22;397;50.564;7.272;2022-07-10T05:18:33;25.00;99.90
831;DHT22;397;50.564;7.272;2022-07-10T05:21:01;22.30;99.90
831;DHT22;397;50.564;7.272;2022-07-10T05:23:28;21.40;99.90
831;DHT22;397;50.564;7.272;2022-07-10T05:25:56;21.90;99.90
831;DHT22;397;50.564;7.272;2022-07-10T05:28:24;22.00;99.90
831;DHT22;397;50.564;7.272;2022-07-10T05:30:51;21.40;99.90
831;DHT22;397;50.564;7.272;2022-07-10T05:33:19;20.90;99.90
831;DHT22;397;50.564;7.272;2022-07-10T05:35:46;20.40;99.90
831;DHT22;397;50.564;7.272;2022-07-10T05:38:14;20.20;99.90
831;DHT22;397;50.564;7.272;2022-07-10T05:40:43;19.80;99.90
831;DHT22;397;50.564;7.272;2022-07-10T05:43:11;18.40;99.90
831;DHT22;397;50.564;7.272;2022-07-10T05:45:38;18.20;99.90
831;DHT22;397;50.564;7.272;2022-07-10T05:48:06;18.60;99.90
831;DHT22;397;50.564;7.272;2022-07-10T05:50:34;18.80;99.90
831;DHT22;397;50.564;7.272;2022-07-10T05:53:01;18.40;99.90
831;DHT22;397;50.564;7.272;2022-07-10T05:55:29;18.90;99.90
831;DHT22;397;50.564;7.272;2022-07-10T05:57:56;19.20;99.90
831;DHT22;397;50.564;7.272;2022-07-10T06:00:25;19.10;99.90
831;DHT22;397;50.564;7.272;2022-07-10T06:02:53;18.90;99.90
831;DHT22;397;50.564;7.272;2022-07-10T06:05:20;19.50;99.90
831;DHT22;397;50.564;7.272;2022-07-10T06:07:48;19.80;99.90
831;DHT22;397;50.564;7.272;2022-07-10T06:10:15;19.70;99.90
831;DHT22;397;50.564;7.272;2022-07-10T06:12:43;20.70;99.90
831;DHT22;397;50.564;7.272;2022-07-10T06:15:11;21.70;99.90
831;DHT22;397;50.564;7.272;2022-07-10T06:17:39;22.30;99.90
831;DHT22;397;50.564;7.272;2022-07-10T06:20:07;22.20;99.90
831;DHT22;397;50.564;7.272;2022-07-10T06:22:34;20.80;99.90
831;DHT22;397;50.564;7.272;2022-07-10T06:25:06;20.80;99.90
831;DHT22;397;50.564;7.272;2022-07-10T06:27:35;21.30;99.90
831;DHT22;397;50.564;7.272;2022-07-10T06:30:03;21.10;99.90
831;DHT22;397;50.564;7.272;2022-07-10T06:32:30;20.90;99.90
831;DHT22;397;50.564;7.272;2022-07-10T06:34:58;20.50;99.90
831;DHT22;397;50.564;7.272;2022-07-10T06:37:26;21.90;99.90
831;DHT22;397;50.564;7.272;2022-07-10T06:39:53;22.60;99.90
831;DHT22;397;50.564;7.272;2022-07-10T06:42:21;22.30;99.90
831;DHT22;397;50.564;7.272;2022-07-10T06:44:48;21.10;99.90
831;DHT22;397;50.564;7.272;2022-07-10T06:47:18;21.10;99.90
831;DHT22;397;50.564;7.272;2022-07-10T06:50:05;20.40;99.90
831;DHT22;397;50.564;7.272;2022-07-10T06:52:33;19.30;99.90
831;DHT22;397;50.564;7.272;2022-07-10T06:55:02;19.30;99.90
831;DHT22;397;50.564;7.272;2022-07-10T06:57:30;19.20;99.90
831;DHT22;397;50.564;7.272;2022-07-10T06:59:57;18.90;99.90
831;DHT22;397;50.564;7.272;2022-07-10T07:02:25;18.90;99.90
831;DHT22;397;50.564;7.272;2022-07-10T07:04:52;18.70;99.90
831;DHT22;397;50.564;7.272;2022-07-10T07:07:20;18.60;99.90
831;DHT22;397;50.564;7.272;2022-07-10T07:09:48;18.70;99.90
831;DHT22;397;50.564;7.272;2022-07-10T07:12:17;17.90;99.90
831;DHT22;397;50.564;7.272;2022-07-10T07:14:45;17.90;99.90
831;DHT22;397;50.564;7.272;2022-07-10T07:17:13;18.00;99.90
831;DHT22;397;50.564;7.272;2022-07-10T07:19:42;18.10;99.90
831;DHT22;397;50.564;7.272;2022-07-10T07:22:28;17.80;99.90
831;DHT22;397;50.564;7.272;2022-07-10T07:25:14;17.90;99.90
831;DHT22;397;50.564;7.272;2022-07-10T07:27:41;18.50;99.90
831;DHT22;397;50.564;7.272;2022-07-10T07:30:13;18.90;99.90
831;DHT22;397;50.564;7.272;2022-07-10T07:32:46;18.50;99.90
831;DHT22;397;50.564;7.272;2022-07-10T07:35:19;18.60;99.90
831;DHT22;397;50.564;7.272;2022-07-10T07:37:49;18.50;99.90
831;DHT22;397;50.564;7.272;2022-07-10T07:40:19;18.50;99.90
831;DHT22;397;50.564;7.272;2022-07-10T07:42:50;17.80;99.90
831;DHT22;397;50.564;7.272;2022-07-10T07:45:18;18.30;99.90
831;DHT22;397;50.564;7.272;2022-07-10T07:47:50;18.20;99.90
831;DHT22;397;50.564;7.272;2022-07-10T07:50:20;18.00;99.90
831;DHT22;397;50.564;7.272;2022-07-10T07:52:48;18.10;99.90
831;DHT22;397;50.564;7.272;2022-07-10T07:55:17;18.00;99.90
831;DHT22;397;50.564;7.272;2022-07-10T07:57:45;18.50;99.90
831;DHT22;397;50.564;7.272;2022-07-10T08:00:14;18.20;99.90
831;DHT22;397;50.564;7.272;2022-07-10T08:03:04;18.10;99.90
831;DHT22;397;50.564;7.272;2022-07-10T08:05:32;18.50;99.90
831;DHT22;397;50.564;7.272;2022-07-10T08:08:00;18.40;99.90
831;DHT22;397;50.564;7.272;2022-07-10T08:10:30;18.50;99.90
831;DHT22;397;50.564;7.272;2022-07-10T08:12:57;18.40;99.90
831;DHT22;397;50.564;7.272;2022-07-10T08:15:25;18.10;99.90
831;DHT22;397;50.564;7.272;2022-07-10T08:17:54;18.20;99.90
831;DHT22;397;50.564;7.272;2022-07-10T08:20:26;18.10;99.90
831;DHT22;397;50.564;7.272;2022-07-10T08:22:54;17.80;99.90
831;DHT22;397;50.564;7.272;2022-07-10T08:25:22;17.80;99.90
831;DHT22;397;50.564;7.272;2022-07-10T08:27:50;17.80;99.90
831;DHT22;397;50.564;7.272;2022-07-10T08:30:18;17.80;99.90
831;DHT22;397;50.564;7.272;2022-07-10T08:32:45;18.10;99.90
831;DHT22;397;50.564;7.272;2022-07-10T08:35:13;18.00;99.90
831;DHT22;397;50.564;7.272;2022-07-10T08:37:42;18.70;99.90
831;DHT22;397;50.564;7.272;2022-07-10T08:40:11;18.80;99.90
831;DHT22;397;50.564;7.272;2022-07-10T08:42:43;19.40;99.90
831;DHT22;397;50.564;7.272;2022-07-10T08:45:13;20.10;99.90
831;DHT22;397;50.564;7.272;2022-07-10T08:47:41;19.50;99.90
831;DHT22;397;50.564;7.272;2022-07-10T08:50:24;19.90;99.90
831;DHT22;397;50.564;7.272;2022-07-10T08:53:12;19.50;99.90
831;DHT22;397;50.564;7.272;2022-07-10T08:55:40;18.90;99.90
831;DHT22;397;50.564;7.272;2022-07-10T08:58:12;19.60;99.90
831;DHT22;397;50.564;7.272;2022-07-10T09:00:40;20.10;99.90
831;DHT22;397;50.564;7.272;2022-07-10T09:03:08;20.50;99.90
831;DHT22;397;50.564;7.272;2022-07-10T09:05:36;20.30;99.90
831;DHT22;397;50.564;7.272;2022-07-10T09:08:03;20.50;99.90
831;DHT22;397;50.564;7.272;2022-07-10T09:10:31;20.10;99.90
831;DHT22;397;50.564;7.272;2022-07-10T09:13:00;20.00;99.90
831;DHT22;397;50.564;7.272;2022-07-10T09:15:31;19.80;99.90
831;DHT22;397;50.564;7.272;2022-07-10T09:18:00;20.00;99.90
831;DHT22;397;50.564;7.272;2022-07-10T09:20:37;20.10;99.90
831;DHT22;397;50.564;7.272;2022-07-10T09:23:23;20.20;99.90
831;DHT22;397;50.564;7.272;2022-07-10T09:25:48;20.00;99.90
831;DHT22;397;50.564;7.272;2022-07-10T09:28:18;19.70;99.90
831;DHT22;397;50.564;7.272;2022-07-10T09:31:05;19.90;99.90
831;DHT22;397;50.564;7.272;2022-07-10T09:33:33;19.40;99.90
831;DHT22;397;50.564;7.272;2022-07-10T09:41:19;20.00;99.90
831;DHT22;397;50.564;7.272;2022-07-10T09:43:53;19.90;99.90
831;DHT22;397;50.564;7.272;2022-07-10T09:46:25;19.40;99.90
831;DHT22;397;50.564;7.272;2022-07-10T09:49:04;19.10;99.90
831;DHT22;397;50.564;7.272;2022-07-10T09:51:34;19.30;99.90
831;DHT22;397;50.564;7.272;2022-07-10T09:54:03;19.50;99.90
831;DHT22;397;50.564;7.272;2022-07-10T09:56:45;19.20;99.90
831;DHT22;397;50.564;7.272;2022-07-10T09:59:15;19.00;99.90
831;DHT22;397;50.564;7.272;2022-07-10T10:01:50;19.30;99.90
831;DHT22;397;50.564;7.272;2022-07-10T10:04:20;19.40;99.90
831;DHT22;397;50.564;7.272;2022-07-10T10:09:41;19.10;99.90
831;DHT22;397;50.564;7.272;2022-07-10T10:12:20;19.10;99.90
831;DHT22;397;50.564;7.272;2022-07-10T10:14:46;19.30;99.90
831;DHT22;397;50.564;7.272;2022-07-10T10:17:16;19.20;99.90
831;DHT22;397;50.564;7.272;2022-07-10T10:19:44;19.20;99.90
831;DHT22;397;50.564;7.272;2022-07-10T10:22:31;19.40;99.90
831;DHT22;397;50.564;7.272;2022-07-10T10:25:02;19.70;99.90
831;DHT22;397;50.564;7.272;2022-07-10T10:27:30;20.00;99.90
831;DHT22;397;50.564;7.272;2022-07-10T10:29:58;20.10;99.90
831;DHT22;397;50.564;7.272;2022-07-10T10:32:28;20.00;99.90
831;DHT22;397;50.564;7.272;2022-07-10T10:34:55;19.80;99.90
831;DHT22;397;50.564;7.272;2022-07-10T10:37:39;19.80;99.90
831;DHT22;397;50.564;7.272;2022-07-10T10:40:10;19.90;99.90
831;DHT22;397;50.564;7.272;2022-07-10T10:42:40;20.10;99.90
831;DHT22;397;50.564;7.272;2022-07-10T10:45:31;20.10;99.90
831;DHT22;397;50.564;7.272;2022-07-10T10:48:08;20.20;99.90
831;DHT22;397;50.564;7.272;2022-07-10T10:50:50;19.90;99.90
831;DHT22;397;50.564;7.272;2022-07-10T10:53:20;19.90;99.90
831;DHT22;397;50.564;7.272;2022-07-10T10:58:46;19.60;99.90
831;DHT22;397;50.564;7.272;2022-07-10T11:04:14;19.40;99.90
831;DHT22;397;50.564;7.272;2022-07-10T11:06:54;19.50;99.90
831;DHT22;397;50.564;7.272;2022-07-10T11:09:29;19.20;99.90
831;DHT22;397;50.564;7.272;2022-07-10T11:12:10;19.40;99.90
831;DHT22;397;50.564;7.272;2022-07-10T11:14:40;18.60;99.90
831;DHT22;397;50.564;7.272;2022-07-10T11:17:09;18.60;99.90
831;DHT22;397;50.564;7.272;2022-07-10T11:19:38;18.50;99.90
831;DHT22;397;50.564;7.272;2022-07-10T11:26:06;19.90;99.90
831;DHT22;397;50.564;7.272;2022-07-10T11:28:07;20.20;99.90
831;DHT22;397;50.564;7.272;2022-07-10T11:33:18;19.40;99.90
831;DHT22;397;50.564;7.272;2022-07-10T11:35:48;19.30;99.90
831;DHT22;397;50.564;7.272;2022-07-10T11:41:18;19.60;99.90
831;DHT22;397;50.564;7.272;2022-07-10T11:43:54;19.40;99.90
831;DHT22;397;50.564;7.272;2022-07-10T11:46:19;19.60;99.90
831;DHT22;397;50.564;7.272;2022-07-10T11:48:48;19.80;99.90
831;DHT22;397;50.564;7.272;2022-07-10T11:51:18;20.20;99.90
831;DHT22;397;50.564;7.272;2022-07-10T11:53:56;20.30;99.90
831;DHT22;397;50.564;7.272;2022-07-10T11:56:26;19.80;99.90
831;DHT22;397;50.564;7.272;2022-07-10T11:58:55;20.30;99.90
831;DHT22;397;50.564;7.272;2022-07-10T12:01:22;20.30;99.90
831;DHT22;397;50.564;7.272;2022-07-10T12:03:57;19.90;99.90
831;DHT22;397;50.564;7.272;2022-07-10T12:06:26;19.60;99.90
831;DHT22;397;50.564;7.272;2022-07-10T12:08:55;19.90;99.90
831;DHT22;397;50.564;7.272;2022-07-10T12:11:23;20.00;99.90
831;DHT22;397;50.564;7.272;2022-07-10T12:13:51;20.20;99.90
831;DHT22;397;50.564;7.272;2022-07-10T12:16:20;20.10;99.90
831;DHT22;397;50.564;7.272;2022-07-10T12:18:49;20.20;99.90
831;DHT22;397;50.564;7.272;2022-07-10T12:21:16;20.30;99.90
831;DHT22;397;50.564;7.272;2022-07-10T12:23:44;20.30;99.90
831;DHT22;397;50.564;7.272;2022-07-10T12:26:13;19.50;99.90
831;DHT22;397;50.564;7.272;2022-07-10T12:28:55;19.70;99.90
831;DHT22;397;50.564;7.272;2022-07-10T12:31:24;19.40;99.90
831;DHT22;397;50.564;7.272;2022-07-10T12:34:02;19.70;99.90
831;DHT22;397;50.564;7.272;2022-07-10T12:39:46;20.50;99.90
831;DHT22;397;50.564;7.272;2022-07-10T12:42:07;20.10;99.90
831;DHT22;397;50.564;7.272;2022-07-10T12:44:40;20.30;99.90
831;DHT22;397;50.564;7.272;2022-07-10T12:47:10;20.00;99.90
831;DHT22;397;50.564;7.272;2022-07-10T12:50:04;20.00;99.90
831;DHT22;397;50.564;7.272;2022-07-10T12:52:36;19.90;99.90
831;DHT22;397;50.564;7.272;2022-07-10T12:55:13;20.10;99.90
831;DHT22;397;50.564;7.272;2022-07-10T12:58:05;19.80;99.90
831;DHT22;397;50.564;7.272;2022-07-10T13:00:31;19.50;99.90
831;DHT22;397;50.564;7.272;2022-07-10T13:03:16;19.40;99.90
831;DHT22;397;50.564;7.272;2022-07-10T13:05:35;19.30;99.90
831;DHT22;397;50.564;7.272;2022-07-10T13:10:59;19.30;99.90
831;DHT22;397;50.564;7.272;2022-07-10T13:13:26;19.20;99.90
831;DHT22;397;50.564;7.272;2022-07-10T13:15:55;19.40;99.90
831;DHT22;397;50.564;7.272;2022-07-10T13:18:27;19.20;99.90
831;DHT22;397;50.564;7.272;2022-07-10T13:20:56;19.40;99.90
831;DHT22;397;50.564;7.272;2022-07-10T13:23:25;19.30;99.90
831;DHT22;397;50.564;7.272;2022-07-10T13:25:53;19.40;99.90
831;DHT22;397;50.564;7.272;2022-07-10T13:28:21;19.20;99.90
831;DHT22;397;50.564;7.272;2022-07-10T13:30:48;19.20;99.90
831;DHT22;397;50.564;7.272;2022-07-10T13:33:16;19.10;99.90
831;DHT22;397;50.564;7.272;2022-07-10T13:35:44;19.30;99.90
831;DHT22;397;50.564;7.272;2022-07-10T13:38:11;19.40;99.90
831;DHT22;397;50.564;7.272;2022-07-10T13:40:39;19.00;99.90
831;DHT22;397;50.564;7.272;2022-07-10T13:43:07;19.10;99.90
831;DHT22;397;50.564;7.272;2022-07-10T13:45:35;19.30;99.90
831;DHT22;397;50.564;7.272;2022-07-10T13:48:04;19.20;99.90
831;DHT22;397;50.564;7.272;2022-07-10T13:50:32;19.30;99.90
831;DHT22;397;50.564;7.272;2022-07-10T13:53:00;19.40;99.90
831;DHT22;397;50.564;7.272;2022-07-10T13:55:27;19.50;99.90
831;DHT22;397;50.564;7.272;2022-07-10T13:57:55;19.40;99.90
831;DHT22;397;50.564;7.272;2022-07-10T14:00:22;19.30;99.90
831;DHT22;397;50.564;7.272;2022-07-10T14:02:50;19.20;99.90
831;DHT22;397;50.564;7.272;2022-07-10T14:05:17;19.30;99.90
831;DHT22;397;50.564;7.272;2022-07-10T14:07:45;19.30;99.90
831;DHT22;397;50.564;7.272;2022-07-10T14:10:12;19.30;99.90
831;DHT22;397;50.564;7.272;2022-07-10T14:12:41;19.40;99.90
831;DHT22;397;50.564;7.272;2022-07-10T14:15:09;19.20;99.90
831;DHT22;397;50.564;7.272;2022-07-10T14:17:37;19.20;99.90
831;DHT22;397;50.564;7.272;2022-07-10T14:20:05;19.20;99.90
831;DHT22;397;50.564;7.272;2022-07-10T14:22:33;19.00;99.90
831;DHT22;397;50.564;7.272;2022-07-10T14:25:00;19.10;99.90
831;DHT22;397;50.564;7.272;2022-07-10T14:27:28;19.10;99.90
831;DHT22;397;50.564;7.272;2022-07-10T14:29:56;19.10;99.90
831;DHT22;397;50.564;7.272;2022-07-10T14:32:24;19.30;99.90
831;DHT22;397;50.564;7.272;2022-07-10T14:34:52;19.00;99.90
831;DHT22;397;50.564;7.272;2022-07-10T14:37:19;19.00;99.90
831;DHT22;397;50.564;7.272;2022-07-10T14:39:48;18.90;99.90
831;DHT22;397;50.564;7.272;2022-07-10T14:42:16;19.00;99.90
831;DHT22;397;50.564;7.272;2022-07-10T14:44:43;19.20;99.90
831;DHT22;397;50.564;7.272;2022-07-10T14:47:11;19.30;99.90
831;DHT22;397;50.564;7.272;2022-07-10T14:49:38;19.40;99.90
831;DHT22;397;50.564;7.272;2022-07-10T14:52:07;19.00;99.90
831;DHT22;397;50.564;7.272;2022-07-10T14:54:34;18.80;99.90
831;DHT22;397;50.564;7.272;2022-07-10T14:57:02;18.60;99.90
831;DHT22;397;50.564;7.272;2022-07-10T14:59:29;18.40;99.90
831;DHT22;397;50.564;7.272;2022-07-10T15:01:57;18.80;99.90
831;DHT22;397;50.564;7.272;2022-07-10T15:04:24;18.50;99.90
831;DHT22;397;50.564;7.272;2022-07-10T15:06:52;18.80;99.90
831;DHT22;397;50.564;7.272;2022-07-10T15:09:19;18.70;99.90
831;DHT22;397;50.564;7.272;2022-07-10T15:11:47;19.10;99.90
831;DHT22;397;50.564;7.272;2022-07-10T15:14:15;19.30;99.90
831;DHT22;397;50.564;7.272;2022-07-10T15:16:42;19.20;99.90
831;DHT22;397;50.564;7.272;2022-07-10T15:19:10;18.80;99.90
831;DHT22;397;50.564;7.272;2022-07-10T15:21:38;19.10;99.90
831;DHT22;397;50.564;7.272;2022-07-10T15:24:06;19.30;99.90
831;DHT22;397;50.564;7.272;2022-07-10T15:26:33;19.50;99.90
831;DHT22;397;50.564;7.272;2022-07-10T15:29:01;19.50;99.90
831;DHT22;397;50.564;7.272;2022-07-10T15:31:28;19.30;99.90
831;DHT22;397;50.564;7.272;2022-07-10T15:33:56;19.30;99.90
831;DHT22;397;50.564;7.272;2022-07-10T15:36:23;19.40;99.90
831;DHT22;397;50.564;7.272;2022-07-10T15:38:51;19.90;99.90
831;DHT22;397;50.564;7.272;2022-07-10T15:41:18;20.20;99.90
831;DHT22;397;50.564;7.272;2022-07-10T15:43:46;20.10;99.90
831;DHT22;397;50.564;7.272;2022-07-10T15:46:13;20.00;99.90
831;DHT22;397;50.564;7.272;2022-07-10T15:48:42;19.90;99.90
831;DHT22;397;50.564;7.272;2022-07-10T15:51:10;19.50;99.90
831;DHT22;397;50.564;7.272;2022-07-10T15:53:37;19.70;99.90
831;DHT22;397;50.564;7.272;2022-07-10T15:56:05;19.70;99.90
831;DHT22;397;50.564;7.272;2022-07-10T15:58:33;19.70;99.90
831;DHT22;397;50.564;7.272;2022-07-10T16:01:01;19.70;99.90
831;DHT22;397;50.564;7.272;2022-07-10T16:03:28;19.70;99.90
831;DHT22;397;50.564;7.272;2022-07-10T16:05:56;19.80;99.90
831;DHT22;397;50.564;7.272;2022-07-10T16:08:23;19.70;99.90
831;DHT22;397;50.564;7.272;2022-07-10T16:10:51;19.70;99.90
831;DHT22;397;50.564;7.272;2022-07-10T16:13:18;19.70;99.90
831;DHT22;397;50.564;7.272;2022-07-10T16:15:46;19.80;99.90
831;DHT22;397;50.564;7.272;2022-07-10T16:18:14;19.80;99.90
831;DHT22;397;50.564;7.272;2022-07-10T16:20:42;19.70;99.90
831;DHT22;397;50.564;7.272;2022-07-10T16:23:10;19.70;99.90
831;DHT22;397;50.564;7.272;2022-07-10T16:25:37;19.70;99.90
831;DHT22;397;50.564;7.272;2022-07-10T16:28:22;19.60;99.90
831;DHT22;397;50.564;7.272;2022-07-10T16:30:50;19.50;99.90
831;DHT22;397;50.564;7.272;2022-07-10T16:33:17;19.50;99.90
831;DHT22;397;50.564;7.272;2022-07-10T16:35:45;19.50;99.90
831;DHT22;397;50.564;7.272;2022-07-10T16:38:13;19.50;99.90
831;DHT22;397;50.564;7.272;2022-07-10T16:40:43;19.60;99.90
831;DHT22;397;50.564;7.272;2022-07-10T16:43:11;19.60;99.90
831;DHT22;397;50.564;7.272;2022-07-10T16:45:40;19.90;99.90
831;DHT22;397;50.564;7.272;2022-07-10T16:48:08;19.80;99.90
831;DHT22;397;50.564;7.272;2022-07-10T16:50:36;19.80;99.90
831;DHT22;397;50.564;7.272;2022-07-10T16:53:04;19.80;99.90
831;DHT22;397;50.564;7.272;2022-07-10T16:55:32;19.80;99.90
831;DHT22;397;50.564;7.272;2022-07-10T16:57:59;19.60;99.90
831;DHT22;397;50.564;7.272;2022-07-10T17:00:27;19.80;99.90
831;DHT22;397;50.564;7.272;2022-07-10T17:02:54;19.90;99.90
831;DHT22;397;50.564;7.272;2022-07-10T17:05:22;20.20;99.90
831;DHT22;397;50.564;7.272;2022-07-10T17:07:50;20.10;99.90
831;DHT22;397;50.564;7.272;2022-07-10T17:10:17;19.80;99.90
831;DHT22;397;50.564;7.272;2022-07-10T17:12:45;19.80;99.90
831;DHT22;397;50.564;7.272;2022-07-10T17:15:14;19.90;99.90
831;DHT22;397;50.564;7.272;2022-07-10T17:17:41;20.10;99.90
831;DHT22;397;50.564;7.272;2022-07-10T17:20:10;20.00;99.90
831;DHT22;397;50.564;7.272;2022-07-10T17:22:38;20.10;99.90